sensor_id;sensor_type;location;lat;lon;timestamp;temperature;humidity
22035;DHT22;11181;51.002;4.356;2022-12-17T00:02:39;0.60;99.90
22035;DHT22;11181;51.002;4.356;2022-12-17T00:05:23;0.60;99.90
22035;DHT22;11181;51.002;4.356;2022-12-17T00:08:08;0.70;99.90
22035;DHT22;11181;51.002;4.356;2022-12-17T00:10:52;0.60;99.90
22035;DHT22;11181;51.002;4.356;2022-12-17T00:13:38;0.50;99.90
22035;DHT22;11181;51.002;4.356;2022-12-17T00:16:22;0.50;99.90
22035;DHT22;11181;51.002;4.356;2022-12-17T00:19:06;0.50;99.90
22035;DHT22;11181;51.002;4.356;2022-12-17T00:21:50;0.50;99.90
22035;DHT22;11181;51.002;4.356;2022-12-17T00:24:34;0.40;99.90
22035;DHT22;11181;51.002;4.356;2022-12-17T00:27:18;0.40;99.90
22035;DHT22;11181;51.002;4.356;2022-12-17T00:30:05;0.30;99.90
22035;DHT22;11181;51.002;4.356;2022-12-17T00:32:50;0.30;99.90
22035;DHT22;11181;51.002;4.356;2022-12-17T00:35:34;0.30;99.90
22035;DHT22;11181;51.002;4.356;2022-12-17T00:38:18;0.30;99.90
22035;DHT22;11181;51.002;4.356;2022-12-17T00:41:03;0.40;99.90
22035;DHT22;11181;51.002;4.356;2022-12-17T00:43:47;0.40;99.90
22035;DHT22;11181;51.002;4.356;2022-12-17T00:46:32;0.30;99.90
22035;DHT22;11181;51.002;4.356;2022-12-17T00:49:17;0.30;99.90
22035;DHT22;11181;51.002;4.356;2022-12-17T00:52:01;0.30;99.90
22035;DHT22;11181;51.002;4.356;2022-12-17T00:54:45;0.20;99.90
22035;DHT22;11181;51.002;4.356;2022-12-17T00:57:26;0.20;99.90
22035;DHT22;11181;51.002;4.356;2022-12-17T01:00:11;0.20;99.90
22035;DHT22;11181;51.002;4.356;2022-12-17T01:03:05;0.20;99.90
22035;DHT22;11181;51.002;4.356;2022-12-17T01:05:49;0.10;99.90
22035;DHT22;11181;51.002;4.356;2022-12-17T01:08:34;0.20;99.90
22035;DHT22;11181;51.002;4.356;2022-12-17T01:11:18;0.10;99.90
22035;DHT22;11181;51.002;4.356;2022-12-17T01:14:02;0.10;99.90
22035;DHT22;11181;51.002;4.356;2022-12-17T01:16:46;0.10;99.90
22035;DHT22;11181;51.002;4.356;2022-12-17T01:19:32;0.10;99.90
22035;DHT22;11181;51.002;4.356;2022-12-17T01:22:16;0.00;99.90
22035;DHT22;11181;51.002;4.356;2022-12-17T01:25:01;0.00;99.90
22035;DHT22;11181;51.002;4.356;2022-12-17T01:27:47;0.10;99.90
22035;DHT22;11181;51.002;4.356;2022-12-17T01:30:28;0.10;99.90
22035;DHT22;11181;51.002;4.356;2022-12-17T01:33:12;0.00;99.90
22035;DHT22;11181;51.002;4.356;2022-12-17T01:35:58;0.00;99.90
22035;DHT22;11181;51.002;4.356;2022-12-17T01:38:43;-0.10;99.90
22035;DHT22;11181;51.002;4.356;2022-12-17T01:41:36;-0.20;99.90
22035;DHT22;11181;51.002;4.356;2022-12-17T01:44:45;-0.20;99.90
22035;DHT22;11181;51.002;4.356;2022-12-17T01:47:33;-0.20;99.90
22035;DHT22;11181;51.002;4.356;2022-12-17T01:50:18;-0.20;99.90
22035;DHT22;11181;51.002;4.356;2022-12-17T01:53:05;-0.30;99.90
22035;DHT22;11181;51.002;4.356;2022-12-17T01:55:51;-0.30;99.90
22035;DHT22;11181;51.002;4.356;2022-12-17T01:58:36;-0.40;99.90
22035;DHT22;11181;51.002;4.356;2022-12-17T02:01:21;-0.40;99.90
22035;DHT22;11181;51.002;4.356;2022-12-17T02:04:05;-0.40;99.90
22035;DHT22;11181;51.002;4.356;2022-12-17T02:07:00;-0.30;99.90
22035;DHT22;11181;51.002;4.356;2022-12-17T02:09:52;-0.30;99.90
22035;DHT22;11181;51.002;4.356;2022-12-17T02:12:43;-0.30;99.90
22035;DHT22;11181;51.002;4.356;2022-12-17T02:15:33;-0.40;99.90
22035;DHT22;11181;51.002;4.356;2022-12-17T02:18:24;-0.40;99.90
22035;DHT22;11181;51.002;4.356;2022-12-17T02:21:11;-0.40;99.90
22035;DHT22;11181;51.002;4.356;2022-12-17T02:24:00;-0.40;99.90
22035;DHT22;11181;51.002;4.356;2022-12-17T02:26:51;-0.40;99.90
22035;DHT22;11181;51.002;4.356;2022-12-17T02:29:38;-0.40;99.90
22035;DHT22;11181;51.002;4.356;2022-12-17T02:32:25;-0.40;99.90
22035;DHT22;11181;51.002;4.356;2022-12-17T02:35:14;-0.40;99.90
22035;DHT22;11181;51.002;4.356;2022-12-17T02:37:59;-0.40;99.90
22035;DHT22;11181;51.002;4.356;2022-12-17T02:40:45;-0.30;99.90
22035;DHT22;11181;51.002;4.356;2022-12-17T02:43:32;-0.30;99.90
22035;DHT22;11181;51.002;4.356;2022-12-17T02:46:17;-0.30;99.90
22035;DHT22;11181;51.002;4.356;2022-12-17T02:49:02;-0.40;99.90
22035;DHT22;11181;51.002;4.356;2022-12-17T02:51:46;-0.50;99.90
22035;DHT22;11181;51.002;4.356;2022-12-17T02:54:32;-0.50;99.90
22035;DHT22;11181;51.002;4.356;2022-12-17T02:57:16;-0.40;99.90
22035;DHT22;11181;51.002;4.356;2022-12-17T03:00:03;-0.40;99.90
22035;DHT22;11181;51.002;4.356;2022-12-17T03:02:47;-0.50;99.90
22035;DHT22;11181;51.002;4.356;2022-12-17T03:05:31;-0.60;99.90
22035;DHT22;11181;51.002;4.356;2022-12-17T03:08:16;-0.60;99.90
22035;DHT22;11181;51.002;4.356;2022-12-17T03:11:00;-0.50;99.90
22035;DHT22;11181;51.002;4.356;2022-12-17T03:13:44;-0.50;99.90
22035;DHT22;11181;51.002;4.356;2022-12-17T03:16:29;-0.60;99.90
22035;DHT22;11181;51.002;4.356;2022-12-17T03:19:14;-0.60;99.90
22035;DHT22;11181;51.002;4.356;2022-12-17T03:21:58;-0.60;99.90
22035;DHT22;11181;51.002;4.356;2022-12-17T03:24:42;-0.60;99.90
22035;DHT22;11181;51.002;4.356;2022-12-17T03:27:26;-0.70;99.90
22035;DHT22;11181;51.002;4.356;2022-12-17T03:30:11;-0.70;99.90
22035;DHT22;11181;51.002;4.356;2022-12-17T03:32:57;-0.70;99.90
22035;DHT22;11181;51.002;4.356;2022-12-17T03:35:41;-0.60;99.90
22035;DHT22;11181;51.002;4.356;2022-12-17T03:38:25;-0.60;99.90
22035;DHT22;11181;51.002;4.356;2022-12-17T03:41:09;-0.60;99.90
22035;DHT22;11181;51.002;4.356;2022-12-17T03:43:53;-0.70;99.90
22035;DHT22;11181;51.002;4.356;2022-12-17T03:46:52;-0.70;99.90
22035;DHT22;11181;51.002;4.356;2022-12-17T03:49:38;-0.70;99.90
22035;DHT22;11181;51.002;4.356;2022-12-17T03:52:22;-0.80;99.90
22035;DHT22;11181;51.002;4.356;2022-12-17T03:55:07;-0.70;99.90
22035;DHT22;11181;51.002;4.356;2022-12-17T03:57:51;-0.80;99.90
22035;DHT22;11181;51.002;4.356;2022-12-17T04:00:35;-0.80;99.90
22035;DHT22;11181;51.002;4.356;2022-12-17T04:03:19;-0.70;99.90
22035;DHT22;11181;51.002;4.356;2022-12-17T04:06:05;-0.70;99.90
22035;DHT22;11181;51.002;4.356;2022-12-17T04:08:49;-0.80;99.90
22035;DHT22;11181;51.002;4.356;2022-12-17T04:11:33;-0.80;99.90
22035;DHT22;11181;51.002;4.356;2022-12-17T04:14:17;-0.70;99.90
22035;DHT22;11181;51.002;4.356;2022-12-17T04:17:02;-0.70;99.90
22035;DHT22;11181;51.002;4.356;2022-12-17T04:19:46;-0.70;99.90
22035;DHT22;11181;51.002;4.356;2022-12-17T04:22:31;-0.70;99.90
22035;DHT22;11181;51.002;4.356;2022-12-17T04:25:16;-0.70;99.90
22035;DHT22;11181;51.002;4.356;2022-12-17T04:28:00;-0.70;99.90
22035;DHT22;11181;51.002;4.356;2022-12-17T04:30:44;-0.70;99.90
22035;DHT22;11181;51.002;4.356;2022-12-17T04:33:28;-0.70;99.90
22035;DHT22;11181;51.002;4.356;2022-12-17T04:36:13;-0.70;99.90
22035;DHT22;11181;51.002;4.356;2022-12-17T04:39:03;-0.70;99.90
22035;DHT22;11181;51.002;4.356;2022-12-17T04:41:48;-0.70;99.90
22035;DHT22;11181;51.002;4.356;2022-12-17T04:44:32;-0.60;99.90
22035;DHT22;11181;51.002;4.356;2022-12-17T04:47:16;-0.70;99.90
22035;DHT22;11181;51.002;4.356;2022-12-17T04:50:00;-0.70;99.90
22035;DHT22;11181;51.002;4.356;2022-12-17T04:52:44;-0.70;99.90
22035;DHT22;11181;51.002;4.356;2022-12-17T04:55:41;-0.70;99.90
22035;DHT22;11181;51.002;4.356;2022-12-17T04:58:25;-0.60;99.90
22035;DHT22;11181;51.002;4.356;2022-12-17T05:01:09;-0.70;99.90
22035;DHT22;11181;51.002;4.356;2022-12-17T05:03:53;-0.60;99.90
22035;DHT22;11181;51.002;4.356;2022-12-17T05:06:37;-0.60;99.90
22035;DHT22;11181;51.002;4.356;2022-12-17T05:09:22;-0.60;99.90
22035;DHT22;11181;51.002;4.356;2022-12-17T05:12:07;-0.60;99.90
22035;DHT22;11181;51.002;4.356;2022-12-17T05:14:51;-0.60;99.90
22035;DHT22;11181;51.002;4.356;2022-12-17T05:17:35;-0.60;99.90
22035;DHT22;11181;51.002;4.356;2022-12-17T05:20:20;-0.60;99.90
22035;DHT22;11181;51.002;4.356;2022-12-17T05:23:04;-0.60;99.90
22035;DHT22;11181;51.002;4.356;2022-12-17T05:25:55;-0.60;99.90
22035;DHT22;11181;51.002;4.356;2022-12-17T05:28:46;-0.70;99.90
22035;DHT22;11181;51.002;4.356;2022-12-17T05:31:27;-0.60;99.90
22035;DHT22;11181;51.002;4.356;2022-12-17T05:34:11;-0.60;99.90
22035;DHT22;11181;51.002;4.356;2022-12-17T05:36:55;-0.60;99.90
22035;DHT22;11181;51.002;4.356;2022-12-17T05:39:39;-0.60;99.90
22035;DHT22;11181;51.002;4.356;2022-12-17T05:42:20;-0.60;99.90
22035;DHT22;11181;51.002;4.356;2022-12-17T05:45:07;-0.60;99.90
22035;DHT22;11181;51.002;4.356;2022-12-17T05:47:56;-0.60;99.90
22035;DHT22;11181;51.002;4.356;2022-12-17T05:50:40;-0.70;99.90
22035;DHT22;11181;51.002;4.356;2022-12-17T05:53:24;-0.70;99.90
22035;DHT22;11181;51.002;4.356;2022-12-17T05:56:05;-0.70;99.90
22035;DHT22;11181;51.002;4.356;2022-12-17T05:58:50;-0.70;99.90
22035;DHT22;11181;51.002;4.356;2022-12-17T06:01:35;-0.80;99.90
22035;DHT22;11181;51.002;4.356;2022-12-17T06:04:19;-0.80;99.90
22035;DHT22;11181;51.002;4.356;2022-12-17T06:07:03;-0.80;99.90
22035;DHT22;11181;51.002;4.356;2022-12-17T06:09:47;-0.80;99.90
22035;DHT22;11181;51.002;4.356;2022-12-17T06:12:31;-0.80;99.90
22035;DHT22;11181;51.002;4.356;2022-12-17T06:15:16;-0.70;99.90
22035;DHT22;11181;51.002;4.356;2022-12-17T06:18:01;-0.70;99.90
22035;DHT22;11181;51.002;4.356;2022-12-17T06:20:46;-0.70;99.90
22035;DHT22;11181;51.002;4.356;2022-12-17T06:23:30;-0.70;99.90
22035;DHT22;11181;51.002;4.356;2022-12-17T06:26:14;-0.80;99.90
22035;DHT22;11181;51.002;4.356;2022-12-17T06:28:58;-0.70;99.90
22035;DHT22;11181;51.002;4.356;2022-12-17T06:31:43;-0.80;99.90
22035;DHT22;11181;51.002;4.356;2022-12-17T06:34:28;-0.80;99.90
22035;DHT22;11181;51.002;4.356;2022-12-17T06:37:13;-0.80;99.90
22035;DHT22;11181;51.002;4.356;2022-12-17T06:39:57;-0.80;99.90
22035;DHT22;11181;51.002;4.356;2022-12-17T06:42:51;-0.70;99.90
22035;DHT22;11181;51.002;4.356;2022-12-17T06:45:35;-0.70;99.90
22035;DHT22;11181;51.002;4.356;2022-12-17T06:48:19;-0.70;99.90
22035;DHT22;11181;51.002;4.356;2022-12-17T06:51:05;-0.70;99.90
22035;DHT22;11181;51.002;4.356;2022-12-17T06:53:49;-0.70;99.90
22035;DHT22;11181;51.002;4.356;2022-12-17T06:56:33;-0.70;99.90
22035;DHT22;11181;51.002;4.356;2022-12-17T06:59:18;-0.70;99.90
22035;DHT22;11181;51.002;4.356;2022-12-17T07:02:02;-0.70;99.90
22035;DHT22;11181;51.002;4.356;2022-12-17T07:04:46;-0.70;99.90
22035;DHT22;11181;51.002;4.356;2022-12-17T07:07:32;-0.60;99.90
22035;DHT22;11181;51.002;4.356;2022-12-17T07:10:16;-0.60;99.90
22035;DHT22;11181;51.002;4.356;2022-12-17T07:13:04;-0.60;99.90
22035;DHT22;11181;51.002;4.356;2022-12-17T07:15:48;-0.60;99.90
22035;DHT22;11181;51.002;4.356;2022-12-17T07:18:32;-0.60;99.90
22035;DHT22;11181;51.002;4.356;2022-12-17T07:21:16;-0.50;99.90
22035;DHT22;11181;51.002;4.356;2022-12-17T07:24:02;-0.50;99.90
22035;DHT22;11181;51.002;4.356;2022-12-17T07:26:46;-0.50;99.90
22035;DHT22;11181;51.002;4.356;2022-12-17T07:29:30;-0.60;99.90
22035;DHT22;11181;51.002;4.356;2022-12-17T07:32:14;-0.60;99.90
22035;DHT22;11181;51.002;4.356;2022-12-17T07:34:58;-0.50;99.90
22035;DHT22;11181;51.002;4.356;2022-12-17T07:37:43;-0.40;99.90
22035;DHT22;11181;51.002;4.356;2022-12-17T07:40:28;-0.40;99.90
22035;DHT22;11181;51.002;4.356;2022-12-17T07:43:13;-0.30;99.90
22035;DHT22;11181;51.002;4.356;2022-12-17T07:45:58;-0.30;99.90
22035;DHT22;11181;51.002;4.356;2022-12-17T07:48:42;-0.30;99.90
22035;DHT22;11181;51.002;4.356;2022-12-17T07:51:29;-0.30;99.90
22035;DHT22;11181;51.002;4.356;2022-12-17T07:54:13;-0.30;99.90
22035;DHT22;11181;51.002;4.356;2022-12-17T07:56:59;-0.30;99.90
22035;DHT22;11181;51.002;4.356;2022-12-17T07:59:43;-0.30;99.90
22035;DHT22;11181;51.002;4.356;2022-12-17T08:02:27;-0.30;99.90
22035;DHT22;11181;51.002;4.356;2022-12-17T08:05:11;-0.20;99.90
22035;DHT22;11181;51.002;4.356;2022-12-17T08:07:55;-0.20;99.90
22035;DHT22;11181;51.002;4.356;2022-12-17T08:10:40;-0.20;99.90
22035;DHT22;11181;51.002;4.356;2022-12-17T08:13:25;-0.20;99.90
22035;DHT22;11181;51.002;4.356;2022-12-17T08:16:10;-0.20;99.90
22035;DHT22;11181;51.002;4.356;2022-12-17T08:18:54;-0.20;99.90
22035;DHT22;11181;51.002;4.356;2022-12-17T08:21:38;-0.20;99.90
22035;DHT22;11181;51.002;4.356;2022-12-17T08:24:22;-0.10;99.90
22035;DHT22;11181;51.002;4.356;2022-12-17T08:27:06;-0.10;99.90
22035;DHT22;11181;51.002;4.356;2022-12-17T08:29:51;-0.10;99.90
22035;DHT22;11181;51.002;4.356;2022-12-17T08:32:36;0.00;99.90
22035;DHT22;11181;51.002;4.356;2022-12-17T08:35:20;0.00;99.90
22035;DHT22;11181;51.002;4.356;2022-12-17T08:38:05;0.10;99.90
22035;DHT22;11181;51.002;4.356;2022-12-17T08:40:50;0.10;99.90
22035;DHT22;11181;51.002;4.356;2022-12-17T08:43:34;0.10;99.90
22035;DHT22;11181;51.002;4.356;2022-12-17T08:46:20;0.20;99.90
22035;DHT22;11181;51.002;4.356;2022-12-17T08:49:04;0.30;99.90
22035;DHT22;11181;51.002;4.356;2022-12-17T08:51:48;0.30;99.90
22035;DHT22;11181;51.002;4.356;2022-12-17T08:54:32;0.40;99.90
22035;DHT22;11181;51.002;4.356;2022-12-17T08:57:17;0.50;99.90
22035;DHT22;11181;51.002;4.356;2022-12-17T09:00:01;0.50;99.90
22035;DHT22;11181;51.002;4.356;2022-12-17T09:02:46;0.60;99.90
22035;DHT22;11181;51.002;4.356;2022-12-17T09:05:31;0.70;99.90
22035;DHT22;11181;51.002;4.356;2022-12-17T09:08:15;0.80;99.90
22035;DHT22;11181;51.002;4.356;2022-12-17T09:10:59;0.80;99.90
22035;DHT22;11181;51.002;4.356;2022-12-17T09:13:43;0.90;99.90
22035;DHT22;11181;51.002;4.356;2022-12-17T09:16:28;1.00;99.90
22035;DHT22;11181;51.002;4.356;2022-12-17T09:19:13;1.00;99.90
22035;DHT22;11181;51.002;4.356;2022-12-17T09:22:00;0.90;99.90
22035;DHT22;11181;51.002;4.356;2022-12-17T09:24:44;0.90;99.90
22035;DHT22;11181;51.002;4.356;2022-12-17T09:27:28;1.00;99.90
22035;DHT22;11181;51.002;4.356;2022-12-17T09:30:13;1.10;99.90
22035;DHT22;11181;51.002;4.356;2022-12-17T09:32:58;1.20;99.90
22035;DHT22;11181;51.002;4.356;2022-12-17T09:35:43;1.30;99.90
22035;DHT22;11181;51.002;4.356;2022-12-17T09:38:28;1.10;99.90
22035;DHT22;11181;51.002;4.356;2022-12-17T09:41:19;0.90;99.90
22035;DHT22;11181;51.002;4.356;2022-12-17T09:44:20;0.70;99.90
22035;DHT22;11181;51.002;4.356;2022-12-17T09:47:16;0.60;99.90
22035;DHT22;11181;51.002;4.356;2022-12-17T09:50:07;1.00;99.90
22035;DHT22;11181;51.002;4.356;2022-12-17T09:52:57;1.50;99.90
22035;DHT22;11181;51.002;4.356;2022-12-17T09:55:46;2.00;99.90
22035;DHT22;11181;51.002;4.356;2022-12-17T09:58:35;2.60;99.90
22035;DHT22;11181;51.002;4.356;2022-12-17T10:01:21;3.00;99.90
22035;DHT22;11181;51.002;4.356;2022-12-17T10:04:11;3.20;99.90
22035;DHT22;11181;51.002;4.356;2022-12-17T10:06:57;3.10;99.90
22035;DHT22;11181;51.002;4.356;2022-12-17T10:09:44;3.00;99.90
22035;DHT22;11181;51.002;4.356;2022-12-17T10:12:29;2.90;99.90
22035;DHT22;11181;51.002;4.356;2022-12-17T10:15:28;3.10;99.90
22035;DHT22;11181;51.002;4.356;2022-12-17T10:18:14;3.50;99.90
22035;DHT22;11181;51.002;4.356;2022-12-17T10:21:03;3.90;99.90
22035;DHT22;11181;51.002;4.356;2022-12-17T10:23:49;4.30;99.90
22035;DHT22;11181;51.002;4.356;2022-12-17T10:26:35;4.50;99.90
22035;DHT22;11181;51.002;4.356;2022-12-17T10:29:22;4.70;99.90
22035;DHT22;11181;51.002;4.356;2022-12-17T10:32:16;5.00;99.90
22035;DHT22;11181;51.002;4.356;2022-12-17T10:35:06;5.30;99.90
22035;DHT22;11181;51.002;4.356;2022-12-17T10:37:51;5.60;99.90
22035;DHT22;11181;51.002;4.356;2022-12-17T10:40:35;5.80;99.90
22035;DHT22;11181;51.002;4.356;2022-12-17T10:43:26;6.10;99.90
22035;DHT22;11181;51.002;4.356;2022-12-17T10:46:21;6.30;99.90
22035;DHT22;11181;51.002;4.356;2022-12-17T10:49:10;6.60;99.90
22035;DHT22;11181;51.002;4.356;2022-12-17T10:52:03;6.90;99.90
22035;DHT22;11181;51.002;4.356;2022-12-17T10:55:00;7.00;99.90
22035;DHT22;11181;51.002;4.356;2022-12-17T10:57:46;7.10;99.90
22035;DHT22;11181;51.002;4.356;2022-12-17T11:00:34;7.40;99.90
22035;DHT22;11181;51.002;4.356;2022-12-17T11:03:25;7.60;99.90
22035;DHT22;11181;51.002;4.356;2022-12-17T11:06:12;7.80;99.90
22035;DHT22;11181;51.002;4.356;2022-12-17T11:09:00;8.00;99.90
22035;DHT22;11181;51.002;4.356;2022-12-17T11:11:45;8.10;99.90
22035;DHT22;11181;51.002;4.356;2022-12-17T11:14:33;8.30;99.90
22035;DHT22;11181;51.002;4.356;2022-12-17T11:17:23;8.50;99.90
22035;DHT22;11181;51.002;4.356;2022-12-17T11:20:19;8.60;99.90
22035;DHT22;11181;51.002;4.356;2022-12-17T11:23:11;8.90;99.90
22035;DHT22;11181;51.002;4.356;2022-12-17T11:26:02;9.00;99.90
22035;DHT22;11181;51.002;4.356;2022-12-17T11:28:48;9.00;99.90
22035;DHT22;11181;51.002;4.356;2022-12-17T11:31:46;9.20;99.90
22035;DHT22;11181;51.002;4.356;2022-12-17T11:34:51;9.20;99.90
22035;DHT22;11181;51.002;4.356;2022-12-17T11:37:42;9.30;99.90
22035;DHT22;11181;51.002;4.356;2022-12-17T11:40:36;9.30;99.90
22035;DHT22;11181;51.002;4.356;2022-12-17T11:43:27;9.40;99.90
22035;DHT22;11181;51.002;4.356;2022-12-17T11:46:22;9.50;99.90
22035;DHT22;11181;51.002;4.356;2022-12-17T11:49:16;9.50;99.90
22035;DHT22;11181;51.002;4.356;2022-12-17T11:52:10;9.50;99.90
22035;DHT22;11181;51.002;4.356;2022-12-17T11:55:02;9.30;99.90
22035;DHT22;11181;51.002;4.356;2022-12-17T11:57:57;9.20;99.90
22035;DHT22;11181;51.002;4.356;2022-12-17T12:00:52;9.40;99.90
22035;DHT22;11181;51.002;4.356;2022-12-17T12:03:46;9.40;99.90
22035;DHT22;11181;51.002;4.356;2022-12-17T12:06:38;9.30;99.90
22035;DHT22;11181;51.002;4.356;2022-12-17T12:09:34;9.30;99.90
22035;DHT22;11181;51.002;4.356;2022-12-17T12:12:35;9.50;99.90
22035;DHT22;11181;51.002;4.356;2022-12-17T12:15:25;9.60;99.90
22035;DHT22;11181;51.002;4.356;2022-12-17T12:18:14;9.70;99.90
22035;DHT22;11181;51.002;4.356;2022-12-17T12:21:14;9.90;99.90
22035;DHT22;11181;51.002;4.356;2022-12-17T12:24:08;9.90;99.90
22035;DHT22;11181;51.002;4.356;2022-12-17T12:27:01;10.00;99.90
22035;DHT22;11181;51.002;4.356;2022-12-17T12:29:54;10.20;99.90
22035;DHT22;11181;51.002;4.356;2022-12-17T12:32:45;10.20;99.90
22035;DHT22;11181;51.002;4.356;2022-12-17T12:35:33;10.10;99.90
22035;DHT22;11181;51.002;4.356;2022-12-17T12:38:21;10.20;99.90
22035;DHT22;11181;51.002;4.356;2022-12-17T12:41:09;10.20;99.90
22035;DHT22;11181;51.002;4.356;2022-12-17T12:44:00;10.20;99.90
22035;DHT22;11181;51.002;4.356;2022-12-17T12:46:58;10.00;99.90
22035;DHT22;11181;51.002;4.356;2022-12-17T12:49:53;9.90;99.90
22035;DHT22;11181;51.002;4.356;2022-12-17T12:52:40;9.90;99.90
22035;DHT22;11181;51.002;4.356;2022-12-17T12:55:36;9.70;99.90
22035;DHT22;11181;51.002;4.356;2022-12-17T12:58:24;9.40;99.90
22035;DHT22;11181;51.002;4.356;2022-12-17T13:01:11;9.20;99.90
22035;DHT22;11181;51.002;4.356;2022-12-17T13:03:57;9.00;99.90
22035;DHT22;11181;51.002;4.356;2022-12-17T13:06:47;8.80;99.90
22035;DHT22;11181;51.002;4.356;2022-12-17T13:09:37;8.80;99.90
22035;DHT22;11181;51.002;4.356;2022-12-17T13:12:23;8.60;99.90
22035;DHT22;11181;51.002;4.356;2022-12-17T13:14:55;8.40;99.90
22035;DHT22;11181;51.002;4.356;2022-12-17T13:17:32;8.20;99.90
22035;DHT22;11181;51.002;4.356;2022-12-17T13:23:31;8.00;99.90
22035;DHT22;11181;51.002;4.356;2022-12-17T13:26:17;8.00;99.90
22035;DHT22;11181;51.002;4.356;2022-12-17T13:28:58;8.00;99.90
22035;DHT22;11181;51.002;4.356;2022-12-17T13:31:27;8.00;99.90
22035;DHT22;11181;51.002;4.356;2022-12-17T13:34:05;7.90;99.90
22035;DHT22;11181;51.002;4.356;2022-12-17T13:36:39;7.80;99.90
22035;DHT22;11181;51.002;4.356;2022-12-17T13:39:23;7.80;99.90
22035;DHT22;11181;51.002;4.356;2022-12-17T13:41:52;7.50;99.90
22035;DHT22;11181;51.002;4.356;2022-12-17T13:44:24;7.50;99.90
22035;DHT22;11181;51.002;4.356;2022-12-17T13:46:52;7.50;99.90
22035;DHT22;11181;51.002;4.356;2022-12-17T13:49:22;7.40;99.90
22035;DHT22;11181;51.002;4.356;2022-12-17T13:52:00;7.40;99.90
22035;DHT22;11181;51.002;4.356;2022-12-17T13:54:27;7.20;99.90
22035;DHT22;11181;51.002;4.356;2022-12-17T13:56:54;7.10;99.90
22035;DHT22;11181;51.002;4.356;2022-12-17T13:59:31;7.10;99.90
22035;DHT22;11181;51.002;4.356;2022-12-17T14:01:58;7.10;99.90
22035;DHT22;11181;51.002;4.356;2022-12-17T14:04:28;6.70;99.90
22035;DHT22;11181;51.002;4.356;2022-12-17T14:06:56;6.70;99.90
22035;DHT22;11181;51.002;4.356;2022-12-17T14:09:31;6.60;99.90
22035;DHT22;11181;51.002;4.356;2022-12-17T14:12:01;6.50;99.90
22035;DHT22;11181;51.002;4.356;2022-12-17T14:14:50;6.30;99.90
22035;DHT22;11181;51.002;4.356;2022-12-17T14:17:21;6.30;99.90
22035;DHT22;11181;51.002;4.356;2022-12-17T14:19:55;6.20;99.90
22035;DHT22;11181;51.002;4.356;2022-12-17T14:22:28;6.10;99.90
22035;DHT22;11181;51.002;4.356;2022-12-17T14:24:57;6.00;99.90
22035;DHT22;11181;51.002;4.356;2022-12-17T14:27:26;6.00;99.90
22035;DHT22;11181;51.002;4.356;2022-12-17T14:29:57;5.80;99.90
22035;DHT22;11181;51.002;4.356;2022-12-17T14:32:29;5.70;99.90
22035;DHT22;11181;51.002;4.356;2022-12-17T14:34:57;5.70;99.90
22035;DHT22;11181;51.002;4.356;2022-12-17T14:37:25;5.70;99.90
22035;DHT22;11181;51.002;4.356;2022-12-17T14:39:55;5.60;99.90
22035;DHT22;11181;51.002;4.356;2022-12-17T14:42:24;5.70;99.90
22035;DHT22;11181;51.002;4.356;2022-12-17T14:44:55;5.70;99.90
22035;DHT22;11181;51.002;4.356;2022-12-17T14:47:25;5.50;99.90
22035;DHT22;11181;51.002;4.356;2022-12-17T14:49:59;5.30;99.90
22035;DHT22;11181;51.002;4.356;2022-12-17T14:52:34;5.30;99.90
22035;DHT22;11181;51.002;4.356;2022-12-17T14:55:01;5.20;99.90
22035;DHT22;11181;51.002;4.356;2022-12-17T14:57:47;4.90;99.90
22035;DHT22;11181;51.002;4.356;2022-12-17T15:00:14;4.50;99.90
22035;DHT22;11181;51.002;4.356;2022-12-17T15:02:42;4.20;99.90
22035;DHT22;11181;51.002;4.356;2022-12-17T15:05:14;3.80;99.90
22035;DHT22;11181;51.002;4.356;2022-12-17T15:07:41;4.00;99.90
22035;DHT22;11181;51.002;4.356;2022-12-17T15:10:10;4.00;99.90
22035;DHT22;11181;51.002;4.356;2022-12-17T15:12:40;3.90;99.90
22035;DHT22;11181;51.002;4.356;2022-12-17T15:15:11;3.80;99.90
22035;DHT22;11181;51.002;4.356;2022-12-17T15:17:38;3.90;99.90
22035;DHT22;11181;51.002;4.356;2022-12-17T15:20:06;4.00;99.90
22035;DHT22;11181;51.002;4.356;2022-12-17T15:22:38;4.00;99.90
22035;DHT22;11181;51.002;4.356;2022-12-17T15:25:06;4.10;99.90
22035;DHT22;11181;51.002;4.356;2022-12-17T15:27:33;4.10;99.90
22035;DHT22;11181;51.002;4.356;2022-12-17T15:30:00;4.10;99.90
22035;DHT22;11181;51.002;4.356;2022-12-17T15:32:27;4.10;99.90
22035;DHT22;11181;51.002;4.356;2022-12-17T15:34:54;4.10;99.90
22035;DHT22;11181;51.002;4.356;2022-12-17T15:37:24;4.00;99.90
22035;DHT22;11181;51.002;4.356;2022-12-17T15:39:52;4.00;99.90
22035;DHT22;11181;51.002;4.356;2022-12-17T15:42:20;4.00;99.90
22035;DHT22;11181;51.002;4.356;2022-12-17T15:45:06;3.90;99.90
22035;DHT22;11181;51.002;4.356;2022-12-17T15:47:33;3.90;99.90
22035;DHT22;11181;51.002;4.356;2022-12-17T15:50:00;3.70;99.90
22035;DHT22;11181;51.002;4.356;2022-12-17T15:52:27;3.50;99.90
22035;DHT22;11181;51.002;4.356;2022-12-17T15:54:55;3.50;99.90
22035;DHT22;11181;51.002;4.356;2022-12-17T15:57:22;3.60;99.90
22035;DHT22;11181;51.002;4.356;2022-12-17T15:59:49;3.30;99.90
22035;DHT22;11181;51.002;4.356;2022-12-17T16:02:17;3.10;99.90
22035;DHT22;11181;51.002;4.356;2022-12-17T16:04:43;3.00;99.90
22035;DHT22;11181;51.002;4.356;2022-12-17T16:07:10;2.80;99.90
22035;DHT22;11181;51.002;4.356;2022-12-17T16:09:37;2.60;99.90
22035;DHT22;11181;51.002;4.356;2022-12-17T16:12:06;2.60;99.90
22035;DHT22;11181;51.002;4.356;2022-12-17T16:14:33;2.00;99.90
22035;DHT22;11181;51.002;4.356;2022-12-17T16:17:00;1.60;99.90
22035;DHT22;11181;51.002;4.356;2022-12-17T16:19:27;1.50;99.90
22035;DHT22;11181;51.002;4.356;2022-12-17T16:21:54;1.40;99.90
22035;DHT22;11181;51.002;4.356;2022-12-17T16:24:21;1.50;99.90
22035;DHT22;11181;51.002;4.356;2022-12-17T16:26:47;1.30;99.90
22035;DHT22;11181;51.002;4.356;2022-12-17T16:29:16;1.50;99.90
22035;DHT22;11181;51.002;4.356;2022-12-17T16:31:43;1.70;99.90
22035;DHT22;11181;51.002;4.356;2022-12-17T16:34:11;1.80;99.90
22035;DHT22;11181;51.002;4.356;2022-12-17T16:36:39;1.90;99.90
22035;DHT22;11181;51.002;4.356;2022-12-17T16:39:06;1.80;99.90
22035;DHT22;11181;51.002;4.356;2022-12-17T16:41:33;1.90;99.90
22035;DHT22;11181;51.002;4.356;2022-12-17T16:44:00;1.60;99.90
22035;DHT22;11181;51.002;4.356;2022-12-17T16:46:30;1.30;99.90
22035;DHT22;11181;51.002;4.356;2022-12-17T16:48:59;1.20;99.90
22035;DHT22;11181;51.002;4.356;2022-12-17T16:51:29;1.00;99.90
22035;DHT22;11181;51.002;4.356;2022-12-17T16:53:56;1.10;99.90
22035;DHT22;11181;51.002;4.356;2022-12-17T16:56:25;1.10;99.90
22035;DHT22;11181;51.002;4.356;2022-12-17T16:58:53;1.20;99.90
22035;DHT22;11181;51.002;4.356;2022-12-17T17:01:23;1.00;99.90
22035;DHT22;11181;51.002;4.356;2022-12-17T17:03:52;0.90;99.90
22035;DHT22;11181;51.002;4.356;2022-12-17T17:06:19;0.90;99.90
22035;DHT22;11181;51.002;4.356;2022-12-17T17:08:47;0.80;99.90
22035;DHT22;11181;51.002;4.356;2022-12-17T17:11:16;0.80;99.90
22035;DHT22;11181;51.002;4.356;2022-12-17T17:13:44;0.90;99.90
22035;DHT22;11181;51.002;4.356;2022-12-17T17:16:11;0.80;99.90
22035;DHT22;11181;51.002;4.356;2022-12-17T17:18:38;0.80;99.90
22035;DHT22;11181;51.002;4.356;2022-12-17T17:21:23;0.90;99.90